Time;durP1;ratioP1;P1;durP2;ratioP2;P2;SDS_P1;SDS_P2;PMS_P1;PMS_P2;Temp;Humidity;BMP_temperature;BMP_pressure;BME280_temperature;BME280_humidity;BME280_pressure;Samples;Min_cycle;Max_cycle;Signal;HPM_P1;HPM_P2
2022/01/07 00:01:06;;;;;;;18.58;9.65;;;;;;;7.20;68.70;99594.34;3132072;28;20075;-68
2022/01/07 00:02:38;;;;;;;16.55;9.35;;;;;;;7.20;68.38;99593.50;3132026;28;20080;-68
2022/01/07 00:04:10;;;;;;;18.40;9.70;;;;;;;7.20;68.42;99598.69;3131451;28;20102;-68
2022/01/07 00:05:43;;;;;;;19.70;9.85;;;;;;;7.21;68.27;99601.19;3132396;28;20052;-68
2022/01/07 00:07:15;;;;;;;17.70;9.85;;;;;;;7.18;68.23;99603.91;3129064;28;20053;-68
2022/01/07 00:08:47;;;;;;;17.55;9.73;;;;;;;7.21;68.26;99606.38;3132088;28;20045;-69
2022/01/07 00:10:21;;;;;;;23.45;11.15;;;;;;;7.21;68.00;99601.19;3131803;28;20049;-67
2022/01/07 00:11:53;;;;;;;19.67;10.80;;;;;;;7.22;67.86;99608.09;3129814;28;20124;-69
2022/01/07 00:13:25;;;;;;;21.08;10.43;;;;;;;7.21;67.83;99605.53;3131863;28;20052;-69
2022/01/07 00:14:57;;;;;;;19.73;9.93;;;;;;;7.22;67.90;99602.06;3130276;28;20041;-69
2022/01/07 00:16:29;;;;;;;16.45;9.10;;;;;;;6.98;67.77;99564.88;3131382;28;20059;-69
2022/01/07 00:18:01;;;;;;;17.92;10.13;;;;;;;7.23;67.73;99614.09;3132262;28;20076;-69
2022/01/07 00:19:33;;;;;;;23.00;11.32;;;;;;;7.21;67.73;99610.72;3130611;28;20049;-69
2022/01/07 00:21:07;;;;;;;20.42;9.90;;;;;;;7.20;67.49;99615.06;3132217;28;20061;-68
2022/01/07 00:22:40;;;;;;;19.10;9.68;;;;;;;7.18;67.65;99616.00;3131519;28;20053;-69
2022/01/07 00:24:12;;;;;;;18.02;10.05;;;;;;;7.16;67.71;99620.38;3130329;28;20049;-68
2022/01/07 00:25:44;;;;;;;18.00;9.15;;;;;;;7.10;67.54;99608.50;3132104;28;20060;-68
2022/01/07 00:27:16;;;;;;;20.20;9.73;;;;;;;7.18;67.41;99618.59;3130759;28;20049;-67
2022/01/07 00:28:48;;;;;;;18.23;10.10;;;;;;;7.17;67.38;99619.50;3130853;28;20502;-68
2022/01/07 00:30:21;;;;;;;18.98;10.73;;;;;;;7.13;67.31;99610.13;3131601;28;20052;-68
2022/01/07 00:31:53;;;;;;;19.52;10.45;;;;;;;7.14;67.37;99627.38;3130566;28;20102;-68
2022/01/07 00:33:25;;;;;;;19.77;9.50;;;;;;;7.12;67.13;99622.22;3131929;28;20053;-68
2022/01/07 00:34:57;;;;;;;19.38;9.68;;;;;;;7.13;67.20;99636.91;3130214;28;20618;-69
2022/01/07 00:36:30;;;;;;;16.85;9.43;;;;;;;7.12;67.05;99635.19;3131289;28;20121;-67
2022/01/07 00:38:03;;;;;;;17.88;9.32;;;;;;;7.06;67.07;99641.41;3132312;28;20053;-68
2022/01/07 00:39:33;;;;;;;22.67;9.70;;;;;;;7.05;67.19;99644.91;3129846;28;20049;-68
2022/01/07 00:41:06;;;;;;;16.65;9.40;;;;;;;7.05;67.05;99646.66;3130593;28;20114;-68
2022/01/07 00:42:38;;;;;;;17.60;9.32;;;;;;;7.03;66.97;99649.28;3131428;28;20084;-67
2022/01/07 00:44:09;;;;;;;16.60;8.95;;;;;;;7.02;67.00;99650.19;3130305;28;20049;-67
2022/01/07 00:45:42;;;;;;;17.25;9.50;;;;;;;6.95;67.02;99640.94;3131859;28;20061;-68
2022/01/07 00:47:14;;;;;;;21.13;8.88;;;;;;;6.94;66.89;99638.38;3129494;28;20060;-68
2022/01/07 00:48:46;;;;;;;16.90;8.48;;;;;;;6.95;66.80;99643.53;3131403;28;20057;-68
2022/01/07 00:50:19;;;;;;;15.20;7.50;;;;;;;6.96;66.70;99649.53;3132103;28;20071;-67
2022/01/07 00:51:53;;;;;;;19.63;7.88;;;;;;;6.95;66.77;99656.47;3129652;28;20060;-67
2022/01/07 00:53:25;;;;;;;13.35;8.18;;;;;;;6.90;66.60;99652.34;3130951;28;20106;-67
2022/01/07 00:54:56;;;;;;;13.48;7.78;;;;;;;6.94;66.49;99666.88;3124945;28;20060;-68
2022/01/07 00:56:28;;;;;;;15.65;8.68;;;;;;;6.91;66.75;99662.63;3129314;28;20084;-68
2022/01/07 00:58:00;;;;;;;13.98;8.13;;;;;;;6.92;66.52;99673.81;3131965;28;20049;-68
2022/01/07 00:59:31;;;;;;;14.52;7.43;;;;;;;6.89;66.59;99672.22;3131947;28;20051;-68
2022/01/07 01:01:04;;;;;;;16.42;8.23;;;;;;;6.91;66.59;99674.72;3130473;28;20099;-68
2022/01/07 01:02:36;;;;;;;15.65;7.60;;;;;;;6.87;66.52;99676.56;3135606;28;20485;-68
2022/01/07 01:04:08;;;;;;;14.48;8.60;;;;;;;6.87;66.40;99678.31;3130239;28;20057;-68
2022/01/07 01:05:42;;;;;;;14.38;8.23;;;;;;;6.85;66.67;99675.78;3131745;28;20056;-68
2022/01/07 01:07:16;;;;;;;16.38;8.07;;;;;;;6.83;66.57;99678.44;3123836;28;20049;-68
2022/01/07 01:08:47;;;;;;;;;;;;;;;6.67;66.83;99684.13;3132583;28;20052;-68
2022/01/07 01:10:24;;;;;;;16.90;8.00;;;;;;;6.73;67.00;99683.94;3131932;28;19925;-68
2022/01/07 01:11:57;;;;;;;15.20;7.50;;;;;;;6.75;66.96;99692.50;3129402;28;20114;-68
2022/01/07 01:13:31;;;;;;;22.17;8.88;;;;;;;6.75;66.67;99692.50;3131772;28;20056;-69
2022/01/07 01:15:04;;;;;;;20.75;8.07;;;;;;;6.76;66.82;99686.41;3130866;28;20048;-68
2022/01/07 01:16:37;;;;;;;13.57;8.13;;;;;;;6.73;66.71;99689.09;3128799;28;20045;-68
2022/01/07 01:18:08;;;;;;;12.80;7.72;;;;;;;6.67;66.72;99674.63;3131826;28;20061;-69
2022/01/07 01:19:40;;;;;;;16.38;9.02;;;;;;;6.50;66.60;99646.66;3129747;28;20484;-68
2022/01/07 01:21:11;;;;;;;16.83;8.38;;;;;;;6.75;66.41;99685.56;3131436;28;20045;-68
2022/01/07 01:22:45;;;;;;;15.35;7.72;;;;;;;6.74;66.37;99686.44;3130079;28;20045;-67
2022/01/07 01:24:17;;;;;;;16.00;7.25;;;;;;;6.74;66.39;99698.53;3130685;28;20076;-68
2022/01/07 01:25:49;;;;;;;14.57;7.40;;;;;;;6.73;66.44;99692.53;3131928;28;20415;-68
2022/01/07 01:27:21;;;;;;;11.93;7.70;;;;;;;6.59;66.40;99674.00;3128465;28;20111;-68
2022/01/07 01:28:53;;;;;;;12.93;7.05;;;;;;;6.70;66.55;99686.59;3131147;28;20044;-67
2022/01/07 01:30:28;;;;;;;14.00;7.78;;;;;;;6.72;66.41;99692.59;3131255;28;20045;-68
2022/01/07 01:31:59;;;;;;;12.52;6.88;;;;;;;6.74;66.47;99696.81;3130590;28;20075;-68
2022/01/07 01:33:31;;;;;;;13.88;7.78;;;;;;;6.73;66.45;99689.94;3131518;28;20053;-68
2022/01/07 01:35:04;;;;;;;14.23;6.97;;;;;;;6.73;66.38;99691.69;3123221;28;20081;-70
2022/01/07 01:36:36;;;;;;;13.02;7.50;;;;;;;6.71;66.35;99693.47;3130917;28;20049;-68
2022/01/07 01:38:10;;;;;;;12.45;6.85;;;;;;;6.72;66.51;99695.19;3131680;28;20095;-68
2022/01/07 01:39:41;;;;;;;13.48;7.43;;;;;;;6.70;66.57;99700.38;3129388;28;20091;-68
2022/01/07 01:41:14;;;;;;;12.23;7.05;;;;;;;6.71;66.34;99702.06;3132304;28;20442;-69
2022/01/07 01:42:47;;;;;;;13.13;7.20;;;;;;;6.71;66.39;99699.50;3130807;28;20045;-68
2022/01/07 01:44:19;;;;;;;15.57;7.55;;;;;;;6.67;66.30;99699.66;3129550;28;20147;-67
2022/01/07 01:45:51;;;;;;;12.52;6.63;;;;;;;6.69;66.33;99690.09;3131565;28;20486;-70
2022/01/07 01:47:23;;;;;;;13.38;7.15;;;;;;;6.69;66.29;99693.53;3128718;28;20517;-70
2022/01/07 01:48:55;;;;;;;13.60;6.35;;;;;;;6.70;66.21;99692.63;3130275;28;20442;-68
2022/01/07 01:50:27;;;;;;;15.25;7.03;;;;;;;6.70;66.11;99692.63;3131302;28;20050;-68
2022/01/07 01:51:58;;;;;;;14.35;6.82;;;;;;;6.72;66.18;99690.00;3131026;28;20052;-70
2022/01/07 01:53:32;;;;;;;12.05;6.85;;;;;;;6.68;66.24;99688.38;3133457;28;20449;-67
2022/01/07 01:55:05;;;;;;;16.02;7.53;;;;;;;6.73;66.07;99694.28;3133176;28;20056;-67
2022/01/07 01:56:37;;;;;;;;;;;;;;;6.54;66.55;99694.84;3129809;28;20049;-69
2022/01/07 01:58:11;;;;;;;18.30;6.72;;;;;;;6.61;66.42;99691.16;3133926;28;19925;-69
2022/01/07 01:59:42;;;;;;;14.15;6.60;;;;;;;6.68;66.32;99685.81;3131178;28;20053;-69
2022/01/07 02:01:15;;;;;;;13.68;6.82;;;;;;;6.70;66.36;99691.78;3133193;28;20045;-69
2022/01/07 02:02:47;;;;;;;11.43;6.60;;;;;;;6.69;66.22;99690.09;3135579;28;20127;-69
2022/01/07 02:04:19;;;;;;;16.10;7.50;;;;;;;6.72;66.19;99692.59;3131243;28;20322;-69
2022/01/07 02:05:51;;;;;;;15.68;7.47;;;;;;;6.73;66.26;99691.69;3132658;28;20558;-69
2022/01/07 02:07:25;;;;;;;14.85;7.00;;;;;;;6.75;66.04;99692.50;3131162;28;20118;-69
2022/01/07 02:08:59;;;;;;;14.88;6.90;;;;;;;6.76;66.01;99696.78;3133162;28;20137;-69
2022/01/07 02:10:31;;;;;;;15.38;7.60;;;;;;;6.74;66.23;99704.56;3133856;28;20130;-68
2022/01/07 02:12:04;;;;;;;16.33;7.53;;;;;;;6.75;66.01;99706.28;3131153;28;20045;-69
2022/01/07 02:13:36;;;;;;;14.27;7.10;;;;;;;6.73;66.20;99713.22;3133954;28;20052;-68
2022/01/07 02:15:08;;;;;;;14.68;7.95;;;;;;;6.75;66.17;99708.88;3126751;28;20079;-69
2022/01/07 02:16:40;;;;;;;13.00;6.57;;;;;;;6.74;66.01;99709.75;3129796;28;20055;-69
2022/01/07 02:18:12;;;;;;;16.80;7.43;;;;;;;6.75;66.01;99702.84;3133374;28;20048;-69
2022/01/07 02:19:45;;;;;;;12.93;7.07;;;;;;;6.71;66.04;99693.47;3131174;28;20041;-69
2022/01/07 02:21:17;;;;;;;14.05;6.82;;;;;;;6.74;65.99;99708.91;3133508;28;20107;-69
2022/01/07 02:22:49;;;;;;;12.10;6.40;;;;;;;6.73;65.95;99700.28;3133447;28;20060;-69
2022/01/07 02:24:21;;;;;;;13.40;7.65;;;;;;;6.72;66.06;99708.97;3131719;28;20484;-69
2022/01/07 02:25:56;;;;;;;13.43;7.63;;;;;;;6.73;66.00;99712.41;3132607;28;20583;-69
2022/01/07 02:27:29;;;;;;;12.90;7.05;;;;;;;6.71;66.00;99715.00;3127023;28;20049;-68
2022/01/07 02:29:01;;;;;;;16.55;7.13;;;;;;;6.72;65.98;99718.47;3132918;28;20075;-67
2022/01/07 02:30:33;;;;;;;12.60;6.82;;;;;;;6.71;66.06;99724.53;3133846;28;20106;-67
2022/01/07 02:32:06;;;;;;;15.50;8.13;;;;;;;6.71;66.09;99725.38;3131169;28;20057;-68
2022/01/07 02:33:38;;;;;;;16.20;6.78;;;;;;;6.70;66.09;99728.03;3133421;28;20060;-68
2022/01/07 02:35:13;;;;;;;13.63;7.00;;;;;;;6.71;66.15;99724.53;3133042;28;20130;-67
2022/01/07 02:36:45;;;;;;;12.10;6.32;;;;;;;6.69;66.13;99731.50;3132157;28;20064;-68
2022/01/07 02:38:17;;;;;;;13.98;7.82;;;;;;;6.68;66.22;99734.97;3128803;28;20154;-68
2022/01/07 02:39:51;;;;;;;13.93;6.88;;;;;;;6.67;66.32;99739.31;3132581;28;20084;-68
2022/01/07 02:41:23;;;;;;;13.52;7.00;;;;;;;6.64;66.24;99730.78;3133041;28;20045;-68
2022/01/07 02:42:55;;;;;;;14.77;7.20;;;;;;;6.66;66.42;99740.22;3132966;28;20052;-68
2022/01/07 02:44:27;;;;;;;13.45;7.50;;;;;;;6.66;66.42;99744.53;3128899;28;20045;-68
2022/01/07 02:45:59;;;;;;;15.75;7.47;;;;;;;6.68;66.26;99746.16;3132965;28;20572;-68
2022/01/07 02:47:39;;;;;;;11.80;6.70;;;;;;;6.61;66.30;99734.31;3131441;28;20103;-68
2022/01/07 02:49:12;;;;;;;12.88;6.68;;;;;;;6.65;66.19;99748.00;3131933;28;20142;-68
2022/01/07 02:50:45;;;;;;;12.25;7.10;;;;;;;6.64;66.32;99744.56;3133267;28;20045;-68
2022/01/07 02:52:17;;;;;;;;;;;;;;;6.46;66.61;99745.97;3131942;28;20079;-68
2022/01/07 02:53:49;;;;;;;16.40;6.78;;;;;;;6.53;66.60;99746.63;3131662;28;19924;-68
2022/01/07 02:55:22;;;;;;;13.82;7.32;;;;;;;6.56;66.67;99743.94;3129281;28;20697;-68
2022/01/07 02:56:54;;;;;;;15.48;6.95;;;;;;;6.53;66.54;99736.28;3130973;28;20568;-68
2022/01/07 02:58:26;;;;;;;13.82;7.10;;;;;;;6.58;66.50;99740.41;3132857;28;20064;-68
2022/01/07 02:59:57;;;;;;;12.40;6.47;;;;;;;6.59;66.44;99744.69;3130676;28;20064;-68
2022/01/07 03:01:29;;;;;;;13.07;6.95;;;;;;;6.62;66.47;99748.94;3132750;28;20123;-68
2022/01/07 03:03:02;;;;;;;12.90;7.55;;;;;;;6.61;66.44;99750.69;3130873;28;20045;-68
2022/01/07 03:04:34;;;;;;;14.32;7.25;;;;;;;6.59;66.57;99747.28;3129757;28;20537;-67
2022/01/07 03:06:07;;;;;;;12.25;6.68;;;;;;;6.64;66.44;99759.25;3132013;28;20076;-68
2022/01/07 03:07:40;;;;;;;15.70;6.88;;;;;;;6.63;66.27;99757.56;3131387;28;20048;-68
2022/01/07 03:09:12;;;;;;;14.15;7.03;;;;;;;6.62;66.31;99754.09;3130511;28;20045;-68
2022/01/07 03:10:44;;;;;;;18.15;7.75;;;;;;;6.63;66.37;99755.81;3121437;28;20049;-68
2022/01/07 03:12:16;;;;;;;12.93;7.10;;;;;;;6.64;66.39;99756.66;3126848;28;20099;-68
2022/01/07 03:13:48;;;;;;;11.70;6.50;;;;;;;6.64;66.30;99759.25;3132228;28;20128;-68
2022/01/07 03:15:20;;;;;;;13.30;7.15;;;;;;;6.63;66.28;99761.00;3132539;28;20052;-68
2022/01/07 03:16:52;;;;;;;16.63;7.47;;;;;;;6.64;66.33;99754.09;3130406;28;20514;-69
2022/01/07 03:18:24;;;;;;;14.90;7.18;;;;;;;6.64;66.37;99764.44;3132665;28;20045;-69
2022/01/07 03:19:56;;;;;;;14.60;7.40;;;;;;;6.64;66.33;99764.44;3130909;28;20048;-68
2022/01/07 03:21:29;;;;;;;17.45;7.82;;;;;;;6.60;66.31;99758.50;3132200;28;20049;-69
2022/01/07 03:23:01;;;;;;;16.00;7.60;;;;;;;6.63;66.32;99770.50;3132721;28;20053;-69
2022/01/07 03:24:33;;;;;;;14.20;6.97;;;;;;;6.61;66.43;99771.38;3130921;28;20106;-69
2022/01/07 03:26:05;;;;;;;15.25;8.07;;;;;;;6.66;66.34;99779.03;3131562;28;20080;-69
2022/01/07 03:27:37;;;;;;;13.93;8.00;;;;;;;6.64;66.12;99769.59;3132555;28;20392;-69
2022/01/07 03:29:09;;;;;;;13.10;6.82;;;;;;;6.64;66.26;99773.03;3131059;28;20502;-69
2022/01/07 03:30:41;;;;;;;14.23;7.20;;;;;;;6.63;66.25;99770.50;3128977;28;20049;-69
2022/01/07 03:32:13;;;;;;;15.10;7.95;;;;;;;6.57;66.33;99772.38;3130330;28;20110;-69
2022/01/07 03:33:45;;;;;;;15.10;7.88;;;;;;;6.64;66.33;99791.16;3132540;28;20103;-69
2022/01/07 03:35:17;;;;;;;13.55;7.07;;;;;;;6.66;66.33;99793.72;3132759;28;20525;-69
2022/01/07 03:36:50;;;;;;;13.55;7.18;;;;;;;6.61;66.30;99786.06;3131389;28;20051;-69
2022/01/07 03:38:22;;;;;;;15.65;8.38;;;;;;;6.63;66.30;99792.06;3131619;28;20053;-68
2022/01/07 03:39:54;;;;;;;13.55;7.75;;;;;;;6.66;66.15;99791.13;3131090;28;20046;-68
2022/01/07 03:41:26;;;;;;;15.52;7.63;;;;;;;6.65;66.41;99797.16;3130899;28;20094;-68
2022/01/07 03:42:58;;;;;;;15.18;7.43;;;;;;;6.64;66.34;99798.06;3130999;28;20131;-68
2022/01/07 03:44:30;;;;;;;13.77;7.70;;;;;;;6.67;66.33;99801.41;3125488;28;20060;-68
2022/01/07 03:46:02;;;;;;;16.35;8.05;;;;;;;6.66;66.50;99791.97;3131596;28;20060;-68
2022/01/07 03:47:34;;;;;;;14.63;7.63;;;;;;;6.65;66.60;99807.50;3132428;28;20049;-69
2022/01/07 03:49:06;;;;;;;17.70;8.82;;;;;;;6.64;66.40;99805.84;3130446;28;20096;-68
2022/01/07 03:50:38;;;;;;;15.25;7.38;;;;;;;6.62;66.75;99811.03;3132600;28;20045;-68
2022/01/07 03:52:12;;;;;;;14.07;7.32;;;;;;;6.63;66.59;99807.56;3131893;28;20061;-67
2022/01/07 03:53:44;;;;;;;15.75;8.73;;;;;;;6.59;66.71;99808.53;3132141;28;20053;-68
2022/01/07 03:55:18;;;;;;;15.50;8.23;;;;;;;6.64;66.59;99821.34;3131300;28;20079;-68
2022/01/07 03:56:50;;;;;;;19.73;7.90;;;;;;;6.61;66.59;99819.69;3127699;28;20103;-68
2022/01/07 03:58:22;;;;;;;16.10;8.32;;;;;;;6.61;66.58;99823.13;3132199;28;20152;-68
2022/01/07 03:59:54;;;;;;;17.52;7.38;;;;;;;6.61;66.60;99828.31;3124824;28;20052;-69
2022/01/07 04:01:26;;;;;;;16.48;8.25;;;;;;;6.62;66.80;99826.56;3130319;28;20200;-69
2022/01/07 04:02:58;;;;;;;16.25;7.78;;;;;;;6.61;66.62;99830.91;3137285;28;20134;-69
2022/01/07 04:04:30;;;;;;;14.45;7.35;;;;;;;6.60;66.61;99820.59;3129883;28;20456;-68
2022/01/07 04:06:02;;;;;;;14.80;8.68;;;;;;;6.56;66.71;99817.22;3132116;28;20048;-68
2022/01/07 04:07:35;;;;;;;16.05;7.93;;;;;;;6.61;66.62;99828.31;3132370;28;20724;-68
2022/01/07 04:09:07;;;;;;;16.35;9.23;;;;;;;6.59;66.60;99827.50;3130229;28;20438;-68
2022/01/07 04:10:39;;;;;;;13.43;7.30;;;;;;;6.42;66.72;99800.41;3132173;28;20575;-69
2022/01/07 04:12:11;;;;;;;17.60;8.85;;;;;;;6.61;66.69;99830.06;3131041;28;20403;-69
2022/01/07 04:13:44;;;;;;;12.23;6.95;;;;;;;6.60;66.55;99841.31;3129897;28;20053;-68
2022/01/07 04:15:16;;;;;;;14.13;7.45;;;;;;;6.59;66.62;99830.09;3131888;28;20057;-69
2022/01/07 04:16:48;;;;;;;18.35;7.60;;;;;;;6.60;66.59;99838.72;3129832;28;20045;-69
2022/01/07 04:18:20;;;;;;;17.30;7.97;;;;;;;6.59;66.43;99843.03;3131688;28;20099;-69
2022/01/07 04:19:51;;;;;;;15.55;7.18;;;;;;;6.51;66.44;99824.31;3131759;28;20102;-69
2022/01/07 04:21:22;;;;;;;16.60;7.70;;;;;;;6.59;66.16;99840.44;3130039;28;20041;-69
2022/01/07 04:22:55;;;;;;;15.93;8.10;;;;;;;6.59;66.37;99845.59;3132782;28;20048;-70
2022/01/07 04:24:27;;;;;;;15.45;8.10;;;;;;;6.58;66.43;99845.66;3124223;28;20242;-69
2022/01/07 04:25:59;;;;;;;16.00;8.35;;;;;;;6.57;66.38;99855.19;3132390;28;20375;-70
2022/01/07 04:27:30;;;;;;;20.50;8.95;;;;;;;6.51;66.46;99849.31;3131903;28;20107;-69
2022/01/07 04:29:01;;;;;;;16.42;8.73;;;;;;;6.56;66.63;99855.19;3130770;28;20628;-69
2022/01/07 04:30:36;;;;;;;23.30;9.45;;;;;;;6.57;66.22;99847.41;3131946;28;20118;-68
2022/01/07 04:32:09;;;;;;;18.20;9.85;;;;;;;6.53;66.56;99852.69;3130366;28;20040;-68
2022/01/07 04:33:41;;;;;;;30.50;16.25;;;;;;;6.49;66.56;99846.78;3130980;28;20139;-68
2022/01/07 04:35:14;;;;;;;22.23;11.15;;;;;;;6.46;66.48;99846.84;3131812;28;20383;-68
2022/01/07 04:36:46;;;;;;;17.40;9.63;;;;;;;6.48;66.49;99850.25;3130090;28;20151;-68
2022/01/07 04:38:19;;;;;;;29.50;16.52;;;;;;;6.51;66.35;99857.09;3131618;28;20117;-68
2022/01/07 04:39:51;;;;;;;;;;;;;;;6.33;66.72;99863.56;3127843;28;20198;-68
2022/01/07 04:41:23;;;;;;;21.25;8.90;;;;;;;6.38;66.70;99862.56;3129637;28;19925;-68
2022/01/07 04:42:54;;;;;;;18.80;8.20;;;;;;;6.43;66.68;99862.47;3130571;28;20099;-68
2022/01/07 04:44:26;;;;;;;20.25;8.73;;;;;;;6.47;66.50;99873.56;3131103;28;20068;-67
2022/01/07 04:45:58;;;;;;;14.88;7.70;;;;;;;6.45;66.55;99858.09;3128579;28;20052;-68
2022/01/07 04:47:31;;;;;;;16.85;7.95;;;;;;;6.42;66.48;99855.59;3119977;28;20500;-68
2022/01/07 04:49:03;;;;;;;13.40;7.63;;;;;;;6.44;66.52;99866.72;3124220;28;20411;-67
2022/01/07 04:50:36;;;;;;;18.15;8.45;;;;;;;6.43;66.66;99875.41;3131348;28;20114;-68
2022/01/07 04:52:08;;;;;;;17.23;7.85;;;;;;;6.39;66.44;99858.28;3131531;28;20060;-68
2022/01/07 04:53:41;;;;;;;15.20;7.68;;;;;;;6.44;66.46;99871.06;3129241;28;20580;-68
2022/01/07 04:55:14;;;;;;;14.23;7.78;;;;;;;6.42;66.63;99876.28;3131105;28;20045;-68
2022/01/07 04:56:46;;;;;;;18.55;8.48;;;;;;;6.35;66.55;99870.41;3129160;28;20045;-69
2022/01/07 04:58:18;;;;;;;17.02;7.95;;;;;;;6.41;66.56;99877.16;3130908;28;20102;-68
2022/01/07 04:59:50;;;;;;;19.55;9.07;;;;;;;6.39;66.57;99876.38;3131570;28;20517;-68
2022/01/07 05:01:22;;;;;;;18.88;8.73;;;;;;;6.42;66.54;99884.06;3129584;28;20423;-68
2022/01/07 05:02:54;;;;;;;16.42;8.10;;;;;;;6.43;66.55;99892.66;3131488;28;20044;-68
2022/01/07 05:04:26;;;;;;;19.48;8.05;;;;;;;6.42;66.53;99894.41;3131346;28;20052;-68
2022/01/07 05:06:10;;;;;;;15.57;7.63;;;;;;;6.42;66.54;99893.53;3130402;28;20052;-68
2022/01/07 05:07:42;;;;;;;18.80;8.38;;;;;;;6.38;66.64;99905.69;3131201;28;20056;-68
2022/01/07 05:09:17;;;;;;;20.10;9.43;;;;;;;6.33;66.71;99890.31;3129485;28;20045;-68
2022/01/07 05:10:49;;;;;;;15.30;7.95;;;;;;;6.36;66.53;99905.75;3132668;28;20150;-68
2022/01/07 05:12:21;;;;;;;15.65;8.13;;;;;;;6.34;66.52;99896.34;3130778;28;20049;-68
2022/01/07 05:13:53;;;;;;;14.20;7.03;;;;;;;6.28;66.73;99893.91;3129976;28;20102;-68
2022/01/07 05:15:25;;;;;;;16.40;8.10;;;;;;;6.34;66.70;99906.69;3131168;28;20049;-69
2022/01/07 05:16:57;;;;;;;16.98;8.23;;;;;;;6.29;66.69;99895.59;3130397;28;20045;-68
2022/01/07 05:18:29;;;;;;;18.57;9.53;;;;;;;6.32;66.63;99918.78;3131562;28;20053;-69
2022/01/07 05:20:02;;;;;;;22.58;8.27;;;;;;;6.12;66.62;99883.97;3131706;28;20108;-68
2022/01/07 05:21:33;;;;;;;18.42;8.43;;;;;;;6.28;66.67;99915.44;3129921;28;20048;-69
2022/01/07 05:23:05;;;;;;;18.05;8.27;;;;;;;6.30;66.63;99926.59;3131022;28;20053;-69
2022/01/07 05:24:38;;;;;;;16.58;8.60;;;;;;;6.28;66.70;99917.19;3131176;28;20053;-69
2022/01/07 05:26:10;;;;;;;17.05;8.15;;;;;;;6.26;66.70;99919.78;3128502;28;20101;-69
2022/01/07 05:27:42;;;;;;;18.92;7.90;;;;;;;6.26;66.83;99924.13;3133449;28;20049;-69
2022/01/07 05:29:14;;;;;;;18.83;8.30;;;;;;;6.25;66.69;99933.63;3131669;28;20067;-69
2022/01/07 05:30:45;;;;;;;18.27;8.10;;;;;;;6.24;66.72;99931.06;3132356;28;20135;-69
2022/01/07 05:32:17;;;;;;;18.77;8.32;;;;;;;6.24;66.82;99931.06;3134039;28;20060;-69
2022/01/07 05:33:50;;;;;;;19.63;9.25;;;;;;;6.25;66.88;99932.78;3132203;28;20063;-69
2022/01/07 05:35:25;;;;;;;20.90;9.18;;;;;;;6.21;66.70;99934.59;3133125;28;20509;-70
2022/01/07 05:36:57;;;;;;;18.85;9.15;;;;;;;6.18;66.85;99929.47;3128128;28;20143;-70
2022/01/07 05:38:29;;;;;;;18.02;8.90;;;;;;;6.24;66.87;99951.75;3133338;28;20390;-71
2022/01/07 05:40:03;;;;;;;16.17;8.20;;;;;;;6.25;66.72;99948.31;3133341;28;20045;-70
2022/01/07 05:41:35;;;;;;;18.13;8.45;;;;;;;6.22;66.74;99946.63;3132076;28;20119;-70
2022/01/07 05:43:07;;;;;;;17.10;8.70;;;;;;;6.24;66.80;99949.16;3131796;28;20492;-70
2022/01/07 05:44:39;;;;;;;19.13;9.10;;;;;;;6.22;66.84;99951.81;3130830;28;20122;-70
2022/01/07 05:46:14;;;;;;;17.25;9.40;;;;;;;6.24;66.77;99954.34;3133193;28;20049;-69
2022/01/07 05:47:46;;;;;;;18.00;8.45;;;;;;;6.22;66.79;99953.56;3133930;28;20576;-69
2022/01/07 05:49:18;;;;;;;15.63;8.38;;;;;;;6.24;66.78;99957.81;3131379;28;20056;-69
2022/01/07 05:50:50;;;;;;;19.40;8.82;;;;;;;6.24;66.68;99957.81;3133596;28;20410;-69
2022/01/07 05:52:22;;;;;;;19.95;9.32;;;;;;;6.23;66.87;99950.06;3133556;28;20488;-69
2022/01/07 05:53:54;;;;;;;17.92;8.77;;;;;;;6.25;66.77;99956.06;3131933;28;20657;-69
2022/01/07 05:55:27;;;;;;;15.73;8.80;;;;;;;6.26;66.74;99955.16;3130245;28;20053;-69
2022/01/07 05:56:59;;;;;;;16.80;8.32;;;;;;;6.24;66.96;99947.47;3129566;28;20079;-69
2022/01/07 05:58:31;;;;;;;20.98;8.65;;;;;;;6.27;66.66;99955.13;3132428;28;20055;-69
2022/01/07 06:00:06;;;;;;;21.42;8.93;;;;;;;6.29;66.66;99949.91;3133843;28;20114;-69
2022/01/07 06:01:38;;;;;;;17.65;8.38;;;;;;;6.25;66.58;99945.72;3132456;28;20132;-69
2022/01/07 06:03:10;;;;;;;17.05;8.65;;;;;;;6.31;66.58;99949.00;3124128;28;20158;-68
2022/01/07 06:04:42;;;;;;;24.30;9.65;;;;;;;6.31;66.64;99942.97;3125642;28;20520;-69
2022/01/07 06:06:14;;;;;;;21.90;9.07;;;;;;;6.31;66.40;99942.97;3132114;28;20048;-69
2022/01/07 06:07:46;;;;;;;16.40;8.10;;;;;;;6.31;66.55;99943.81;3133933;28;20053;-69
2022/01/07 06:09:18;;;;;;;16.98;8.50;;;;;;;6.31;66.57;99949.00;3131838;28;20048;-70
2022/01/07 06:10:51;;;;;;;17.30;8.20;;;;;;;6.33;66.51;99954.09;3132301;28;20459;-69
2022/01/07 06:12:23;;;;;;;15.50;7.95;;;;;;;6.31;66.66;99959.34;3133120;28;20049;-70
2022/01/07 06:13:55;;;;;;;17.90;8.32;;;;;;;6.37;66.37;99963.50;3132478;28;20508;-69
2022/01/07 06:15:27;;;;;;;15.93;8.52;;;;;;;6.39;66.45;99956.56;3133967;28;20089;-69
2022/01/07 06:16:59;;;;;;;17.10;8.48;;;;;;;6.27;66.38;99941.34;3131354;28;20118;-69
2022/01/07 06:18:31;;;;;;;18.33;8.15;;;;;;;6.44;66.44;99962.44;3132997;28;20207;-69
2022/01/07 06:20:04;;;;;;;24.80;9.45;;;;;;;6.47;66.12;99964.09;3133397;28;20049;-69
2022/01/07 06:21:35;;;;;;;21.00;9.23;;;;;;;6.49;66.17;99968.34;3131646;28;20056;-67
2022/01/07 06:23:07;;;;;;;21.08;9.40;;;;;;;6.52;66.10;99970.88;3132465;28;20044;-69
2022/01/07 06:24:39;;;;;;;19.35;8.43;;;;;;;6.52;66.06;99951.91;3131386;28;20040;-68
2022/01/07 06:26:13;;;;;;;20.60;8.63;;;;;;;6.56;65.84;99969.03;3130991;28;20486;-70
2022/01/07 06:27:44;;;;;;;18.20;7.93;;;;;;;6.27;66.03;99923.22;3133916;28;20057;-72
2022/01/07 06:29:16;;;;;;;18.70;8.63;;;;;;;6.60;65.95;99968.09;3131285;28;20041;-72
2022/01/07 06:30:48;;;;;;;17.60;8.90;;;;;;;6.64;66.03;99971.44;3132611;28;20049;-71
2022/01/07 06:32:20;;;;;;;17.55;7.97;;;;;;;6.68;65.86;99975.63;3132583;28;20131;-67
2022/01/07 06:33:52;;;;;;;18.20;7.88;;;;;;;6.71;65.66;99966.03;3130141;28;20056;-74
2022/01/07 06:35:24;;;;;;;23.52;9.30;;;;;;;6.77;65.47;99978.84;3133213;28;20722;-72
2022/01/07 06:36:57;;;;;;;18.77;8.50;;;;;;;6.80;65.38;99973.59;3132682;28;20111;-72
2022/01/07 06:38:29;;;;;;;21.23;9.32;;;;;;;6.84;65.54;99979.53;3132599;28;20052;-72
2022/01/07 06:40:01;;;;;;;18.63;8.82;;;;;;;6.84;65.20;99979.53;3133576;28;20048;-72
2022/01/07 06:41:34;;;;;;;18.70;9.02;;;;;;;6.92;65.02;99980.19;3130358;28;20049;-71
2022/01/07 06:43:06;;;;;;;16.35;8.05;;;;;;;6.95;64.83;99985.28;3132503;28;20056;-71
2022/01/07 06:44:38;;;;;;;15.57;7.60;;;;;;;7.02;64.78;99993.72;3132734;28;20045;-71
2022/01/07 06:46:11;;;;;;;18.02;7.38;;;;;;;7.07;64.61;99990.09;3131330;28;20048;-71
2022/01/07 06:47:43;;;;;;;17.73;7.87;;;;;;;7.10;64.56;99985.72;3133998;28;20087;-71
2022/01/07 06:49:15;;;;;;;16.42;8.23;;;;;;;7.19;64.50;99988.06;3131526;28;20724;-70
2022/01/07 06:50:47;;;;;;;22.15;10.73;;;;;;;7.25;64.46;99993.06;3133394;28;20052;-70
2022/01/07 06:52:19;;;;;;;23.15;11.07;;;;;;;7.34;64.00;99990.22;3132893;28;20045;-70
2022/01/07 06:53:51;;;;;;;21.85;9.90;;;;;;;7.39;63.79;99985.72;3131187;28;20048;-70
2022/01/07 06:55:23;;;;;;;13.52;7.97;;;;;;;7.48;63.85;99984.63;3133738;28;20053;-69
2022/01/07 06:56:56;;;;;;;15.48;8.45;;;;;;;7.55;63.49;99993.09;3129665;28;20049;-68
2022/01/07 06:58:28;;;;;;;19.55;8.52;;;;;;;7.59;63.16;99990.34;3131728;28;20086;-68
2022/01/07 07:00:00;;;;;;;23.25;9.63;;;;;;;7.63;63.12;99988.50;3133176;28;20057;-68
2022/01/07 07:01:32;;;;;;;16.85;8.68;;;;;;;7.67;62.98;99990.97;3130303;28;20497;-68
2022/01/07 07:03:04;;;;;;;23.38;11.35;;;;;;;7.70;62.71;99982.25;3133236;28;20045;-68
2022/01/07 07:04:36;;;;;;;17.85;10.30;;;;;;;7.74;62.70;99986.44;3132929;28;20115;-68
2022/01/07 07:06:08;;;;;;;26.58;10.30;;;;;;;7.80;62.31;99988.84;3130630;28;20049;-68
2022/01/07 07:07:40;;;;;;;21.70;11.43;;;;;;;7.82;62.45;99992.25;3132323;28;20049;-68
2022/01/07 07:09:12;;;;;;;28.45;13.45;;;;;;;7.85;62.32;99986.97;3131588;28;20110;-68
2022/01/07 07:10:44;;;;;;;17.58;8.73;;;;;;;7.91;61.99;99988.50;3131755;28;20072;-68
2022/01/07 07:12:17;;;;;;;21.45;8.50;;;;;;;7.93;61.78;99987.56;3133003;28;20064;-72
2022/01/07 07:13:49;;;;;;;16.98;7.85;;;;;;;7.95;61.80;99983.16;3129494;28;20044;-68
2022/01/07 07:15:21;;;;;;;14.13;8.15;;;;;;;8.00;61.85;99993.41;3131497;28;20457;-76